Time;durP1;ratioP1;P1;durP2;ratioP2;P2;SDS_P1;SDS_P2;PMS_P1;PMS_P2;Temp;Humidity;BMP_temperature;BMP_pressure;BME280_temperature;BME280_humidity;BME280_pressure;Samples;Min_cycle;Max_cycle;Signal;HPM_P1;HPM_P2
2023/12/02 00:01:05;;;;;;;;;;;;;;;-3.09;97.13;100996.94;5071708;28;20382;-72
2023/12/02 00:03:30;;;;;;;;;;;;;;;-3.08;97.07;100993.56;5054496;28;19924;-72
2023/12/02 00:05:56;;;;;;;;;;;;;;;-3.07;97.15;100999.59;5058208;28;20003;-72
2023/12/02 00:08:24;;;;;;;;;;;;;;;-3.07;97.38;101010.72;5071493;28;20004;-72
2023/12/02 00:10:50;;;;;;;;;;;;;;;-3.08;97.24;101002.97;5070984;28;20416;-72
2023/12/02 00:13:15;;;;;;;;;;;;;;;-3.07;97.53;101007.28;5053699;28;19924;-72
2023/12/02 00:15:42;;;;;;;;;;;;;;;-3.10;97.11;101009.69;5071265;28;19928;-72
2023/12/02 00:18:08;;;;;;;;;;;;;;;-3.13;96.98;101002.75;5072683;28;20289;-73
2023/12/02 00:20:33;;;;;;;;;;;;;;;-3.15;97.31;100999.22;5053729;28;19928;-73
2023/12/02 00:22:58;;;;;;;;;;;;;;;-3.16;97.17;101000.03;5050142;28;20007;-73
2023/12/02 00:25:24;;;;;;;;;;;;;;;-3.16;97.29;100998.38;5058605;28;19970;-73
2023/12/02 00:27:49;;;;;;;;;;;;;;;-3.14;97.29;100993.31;5066224;28;20407;-73
2023/12/02 00:30:15;;;;;;;;;;;;;;;-3.12;97.45;101001.94;5070337;28;19929;-72
2023/12/02 00:32:40;;;;;;;;;;;;;;;-3.10;97.58;100999.44;5071207;28;19963;-73
2023/12/02 00:35:05;;;;;;;;;;;;;;;-3.14;97.52;100996.75;5058030;28;19921;-73
2023/12/02 00:37:31;;;;;;;;;;;;;;;-3.15;97.48;100996.66;5054005;28;19952;-73
2023/12/02 00:39:56;;;;;;;;;;;;;;;-3.16;97.68;100998.38;5053684;28;19931;-73
2023/12/02 00:42:22;;;;;;;;;;;;;;;-3.10;97.52;101002.91;5070474;28;19966;-73
2023/12/02 00:44:48;;;;;;;;;;;;;;;-3.25;97.20;100999.63;5067970;28;20266;-73
2023/12/02 00:47:13;;;;;;;;;;;;;;;-3.28;96.97;101005.47;5044883;28;19927;-73
2023/12/02 00:49:38;;;;;;;;;;;;;;;-3.32;97.51;101003.56;5054187;28;19959;-73
2023/12/02 00:52:04;;;;;;;;;;;;;;;-3.34;97.37;101002.63;5070558;28;19920;-73
2023/12/02 00:54:33;;;;;;;;;;;;;;;-3.35;97.18;101004.31;5070037;28;19917;-73
2023/12/02 00:56:59;;;;;;;;;;;;;;;-3.34;97.24;101000.94;5069869;28;19917;-73
2023/12/02 00:59:24;;;;;;;;;;;;;;;-3.34;96.77;101010.31;5053878;28;19943;-73
2023/12/02 01:01:49;;;;;;;;;;;;;;;-3.35;96.84;101003.44;5048351;28;19927;-73
2023/12/02 01:04:14;;;;;;;;;;;;;;;-3.31;96.73;101000.19;5067506;28;19920;-73
2023/12/02 01:06:40;;;;;;;;;;;;;;;-3.41;96.92;100998.03;5060402;28;19939;-73
2023/12/02 01:09:05;;;;;;;;;;;;;;;-3.42;96.93;100996.25;5053948;28;19955;-73
2023/12/02 01:11:31;;;;;;;;;;;;;;;-3.43;96.76;100992.81;5069115;28;19924;-73
2023/12/02 01:13:56;;;;;;;;;;;;;;;-3.38;96.75;100990.47;5049016;28;19982;-73
2023/12/02 01:16:21;;;;;;;;;;;;;;;-3.40;97.09;100986.97;5070098;28;20370;-73
2023/12/02 01:18:47;;;;;;;;;;;;;;;-3.42;97.05;100992.03;5053813;28;19928;-73
2023/12/02 01:21:12;;;;;;;;;;;;;;;-3.41;97.00;100988.63;5050189;28;19920;-73
2023/12/02 01:23:37;;;;;;;;;;;;;;;-3.39;97.21;100991.28;5052389;28;20019;-73
2023/12/02 01:26:03;;;;;;;;;;;;;;;-3.38;97.38;100985.34;5072471;28;19979;-73
2023/12/02 01:28:28;;;;;;;;;;;;;;;-3.38;97.34;100993.03;5060337;28;19924;-73
2023/12/02 01:30:53;;;;;;;;;;;;;;;-3.36;97.20;101001.66;5072919;28;20293;-73
2023/12/02 01:33:19;;;;;;;;;;;;;;;-3.37;96.94;100989.69;5073737;28;19916;-73
2023/12/02 01:35:44;;;;;;;;;;;;;;;-3.38;97.42;100998.16;5073347;28;19923;-73
2023/12/02 01:38:09;;;;;;;;;;;;;;;-3.39;97.37;101002.41;5073652;28;19919;-73
2023/12/02 01:40:34;;;;;;;;;;;;;;;-3.36;97.40;101001.66;5052554;28;19939;-73
2023/12/02 01:43:01;;;;;;;;;;;;;;;-3.33;97.22;101010.38;5056552;28;19924;-73
2023/12/02 01:45:26;;;;;;;;;;;;;;;-3.32;97.69;101013.81;5072416;28;20244;-73
2023/12/02 01:47:52;;;;;;;;;;;;;;;-3.31;97.80;101015.56;5072277;28;20392;-73
2023/12/02 01:50:17;;;;;;;;;;;;;;;-3.32;97.62;101016.38;5048443;28;19960;-73
2023/12/02 01:52:43;;;;;;;;;;;;;;;-3.33;97.56;101018.06;5051590;28;20274;-73
2023/12/02 01:55:08;;;;;;;;;;;;;;;-3.34;97.27;101016.31;5065267;28;19952;-73
2023/12/02 01:57:34;;;;;;;;;;;;;;;-3.34;97.79;101025.69;5066809;28;19912;-73
2023/12/02 01:59:59;;;;;;;;;;;;;;;-3.36;97.42;101027.28;5044677;28;19933;-73
2023/12/02 02:02:25;;;;;;;;;;;;;;;-3.42;97.78;101022.78;5056559;28;19923;-73
2023/12/02 02:04:51;;;;;;;;;;;;;;;-3.39;97.57;101029.72;5073459;28;19920;-73
2023/12/02 02:07:17;;;;;;;;;;;;;;;-3.39;97.63;101022.91;5054995;28;20292;-73
2023/12/02 02:09:46;;;;;;;;;;;;;;;-3.36;97.45;101022.16;5050335;28;19920;-73
2023/12/02 02:12:12;;;;;;;;;;;;;;;-3.33;97.86;101028.31;5053473;28;20290;-73
2023/12/02 02:14:37;;;;;;;;;;;;;;;-3.31;97.97;101025.84;5072623;28;19920;-73
2023/12/02 02:17:03;;;;;;;;;;;;;;;-3.30;98.13;101019.91;5056332;28;19931;-73
2023/12/02 02:19:28;;;;;;;;;;;;;;;-3.29;97.86;101019.06;5072155;28;20035;-73
2023/12/02 02:21:54;;;;;;;;;;;;;;;-3.27;97.88;101027.75;5052763;28;20292;-73
2023/12/02 02:24:19;;;;;;;;;;;;;;;-3.29;98.00;101028.47;5065770;28;19955;-73
2023/12/02 02:26:44;;;;;;;;;;;;;;;-3.31;97.96;101028.41;5036645;28;19946;-73
2023/12/02 02:29:10;;;;;;;;;;;;;;;-3.33;97.81;101022.34;5055831;28;20297;-73
2023/12/02 02:31:35;;;;;;;;;;;;;;;-3.39;97.95;101029.72;5071806;28;19927;-73
2023/12/02 02:34:01;;;;;;;;;;;;;;;-3.43;98.02;101022.66;5036709;28;19943;-73
2023/12/02 02:36:26;;;;;;;;;;;;;;;-3.51;98.18;101022.31;5039432;28;20338;-73
2023/12/02 02:38:51;;;;;;;;;;;;;;;-3.57;98.28;101028.03;5064870;28;19944;-73
2023/12/02 02:41:17;;;;;;;;;;;;;;;-3.71;97.65;101023.91;5043750;28;20019;-73
2023/12/02 02:43:42;;;;;;;;;;;;;;;-3.79;97.54;101025.22;5035899;28;20177;-73
2023/12/02 02:46:07;;;;;;;;;;;;;;;-3.84;97.94;101033.53;5054585;28;19953;-73
2023/12/02 02:48:33;;;;;;;;;;;;;;;-3.86;98.01;101030.03;5043342;28;19965;-73
2023/12/02 02:50:58;;;;;;;;;;;;;;;-3.90;98.12;101033.25;5051084;28;20406;-73
2023/12/02 02:53:23;;;;;;;;;;;;;;;-3.91;98.04;101025.47;5090909;28;19919;-72
2023/12/02 02:55:48;;;;;;;;;;;;;;;-3.93;98.31;101027.97;5071839;28;20270;-72
2023/12/02 02:58:14;;;;;;;;;;;;;;;-3.95;98.51;101028.69;5065905;28;20430;-72
2023/12/02 03:00:39;;;;;;;;;;;;;;;-3.98;98.14;101033.66;5052852;28;19927;-72
2023/12/02 03:03:04;;;;;;;;;;;;;;;-3.98;98.46;101037.09;5044156;28;19927;-72
2023/12/02 03:05:30;;;;;;;;;;;;;;;-3.97;98.75;101053.34;5065816;28;19916;-72
2023/12/02 03:07:55;;;;;;;;;;;;;;;-3.95;98.76;101054.28;5055878;28;19930;-72
2023/12/02 03:18:08;;;;;;;;;;;;;;;-3.77;98.69;101049.22;4990651;22;19925;-73
2023/12/02 03:20:34;;;;;;;;;;;;;;;-3.74;98.86;101049.38;5071107;28;19924;-73
2023/12/02 04:27:41;;;;;;;;;;;;;;;-3.42;98.31;101086.84;4901885;26;19924;-72
2023/12/02 04:30:08;;;;;;;;;;;;;;;-3.42;98.27;101084.28;5059126;28;19928;-72
2023/12/02 04:32:33;;;;;;;;;;;;;;;-3.43;98.40;101087.63;5082491;28;19966;-72
2023/12/02 04:34:59;;;;;;;;;;;;;;;-3.42;98.30;101093.63;5073385;28;19913;-72
2023/12/02 04:37:24;;;;;;;;;;;;;;;-3.41;98.28;101095.38;5081531;28;19915;-72
2023/12/02 04:39:51;;;;;;;;;;;;;;;-3.39;98.39;101091.19;5079976;28;19920;-72
2023/12/02 04:42:18;;;;;;;;;;;;;;;-3.37;98.15;101098.16;5083371;28;19916;-72
2023/12/02 04:44:43;;;;;;;;;;;;;;;-3.36;98.58;101099.03;5072781;28;20007;-72
2023/12/02 04:47:09;;;;;;;;;;;;;;;-3.38;98.49;101096.41;5082273;28;20339;-72
2023/12/02 04:49:34;;;;;;;;;;;;;;;-3.39;98.53;101093.75;5062746;28;19932;-72
2023/12/02 04:51:59;;;;;;;;;;;;;;;-3.42;98.17;101098.75;5064197;28;19916;-72
2023/12/02 04:54:24;;;;;;;;;;;;;;;-3.45;98.55;101104.59;5056941;28;19924;-72
2023/12/02 04:56:50;;;;;;;;;;;;;;;-3.45;98.54;101089.22;5073820;28;19924;-72
2023/12/02 04:59:15;;;;;;;;;;;;;;;-3.46;98.33;101092.59;5073975;28;20301;-72
2023/12/02 05:01:41;;;;;;;;;;;;;;;-3.50;98.36;101096.69;5078855;28;19920;-72
2023/12/02 05:04:06;;;;;;;;;;;;;;;-3.49;98.48;101101.03;5092617;28;19926;-72
2023/12/02 05:06:34;;;;;;;;;;;;;;;-3.51;98.63;101102.59;5057557;28;19920;-72
2023/12/02 05:08:59;;;;;;;;;;;;;;;-3.53;98.30;101100.78;5073845;28;20375;-73
2023/12/02 05:11:24;;;;;;;;;;;;;;;-3.51;98.50;101110.28;5075392;28;19934;-73
2023/12/02 05:13:53;;;;;;;;;;;;;;;-3.51;98.48;101101.75;5072977;28;19947;-73
2023/12/02 05:16:18;;;;;;;;;;;;;;;-3.51;98.69;101109.44;5067499;28;19924;-73
2023/12/02 05:18:44;;;;;;;;;;;;;;;-3.53;98.59;101114.47;5079084;28;19973;-73
2023/12/02 05:21:09;;;;;;;;;;;;;;;-3.50;98.43;101111.19;5099198;28;19962;-73
2023/12/02 05:23:35;;;;;;;;;;;;;;;-3.42;98.71;101104.78;5079239;28;19924;-73
2023/12/02 05:26:01;;;;;;;;;;;;;;;-3.44;98.53;101110.63;5056214;28;20373;-73
2023/12/02 05:28:27;;;;;;;;;;;;;;;-3.49;98.64;101111.28;5059825;28;20457;-73
2023/12/02 05:30:52;;;;;;;;;;;;;;;-3.40;98.42;101117.66;5074534;28;20015;-73
2023/12/02 05:33:22;;;;;;;;;;;;;;;-3.49;98.24;101120.66;5057241;28;19920;-73
2023/12/02 05:35:47;;;;;;;;;;;;;;;-3.54;98.49;101130.63;5076449;28;20401;-73
2023/12/02 05:38:13;;;;;;;;;;;;;;;-3.55;98.46;101143.38;5071293;28;19923;-73
2023/12/02 05:40:38;;;;;;;;;;;;;;;-3.54;98.45;101133.19;5055648;28;20360;-73
2023/12/02 05:43:03;;;;;;;;;;;;;;;-3.55;98.46;101144.28;5057127;28;19924;-73
2023/12/02 05:45:29;;;;;;;;;;;;;;;-3.57;98.64;101139.88;5056025;28;20321;-73
2023/12/02 05:47:54;;;;;;;;;;;;;;;-3.58;98.43;101138.97;5077377;28;19923;-73
2023/12/02 05:50:20;;;;;;;;;;;;;;;-3.65;98.71;101131.78;5056296;28;20003;-73
2023/12/02 05:52:45;;;;;;;;;;;;;;;-3.75;98.38;101137.25;5054261;28;20083;-73
2023/12/02 05:55:11;;;;;;;;;;;;;;;-3.83;97.84;101137.72;5090595;28;20434;-73
2023/12/02 05:57:36;;;;;;;;;;;;;;;-3.96;98.01;101140.47;5073627;28;19920;-73
2023/12/02 06:00:01;;;;;;;;;;;;;;;-4.02;99.46;101135.91;5091471;28;19928;-73
2023/12/02 06:02:27;;;;;;;;;;;;;;;-4.09;99.65;101148.31;5056832;28;19924;-73
2023/12/02 06:04:52;;;;;;;;;;;;;;;-4.16;99.08;101149.66;5056898;28;19920;-73
2023/12/02 06:07:17;;;;;;;;;;;;;;;-4.23;99.31;101143.34;5073658;28;19916;-73
2023/12/02 06:09:46;;;;;;;;;;;;;;;-4.27;99.44;101143.09;5056702;28;19927;-73
2023/12/02 06:12:11;;;;;;;;;;;;;;;-4.28;100.00;101142.22;5072229;28;19916;-73
2023/12/02 06:14:36;;;;;;;;;;;;;;;-4.28;100.00;101146.44;5072957;28;19934;-73
2023/12/02 06:17:03;;;;;;;;;;;;;;;-4.24;100.00;101150.94;5057123;28;19986;-73
2023/12/02 06:19:28;;;;;;;;;;;;;;;-4.22;100.00;101142.53;5062174;28;19930;-73
2023/12/02 06:21:53;;;;;;;;;;;;;;;-4.19;100.00;101157.19;5057830;28;20137;-73
2023/12/02 06:24:19;;;;;;;;;;;;;;;-4.16;100.00;101146.25;5073238;28;19923;-73
2023/12/02 06:26:44;;;;;;;;;;;;;;;-4.12;100.00;101155.81;5073875;28;20400;-73
2023/12/02 06:29:10;;;;;;;;;;;;;;;-4.11;100.00;101161.00;5058989;28;19978;-73
2023/12/02 06:31:36;;;;;;;;;;;;;;;-4.07;100.00;101168.06;5079015;28;19928;-73
2023/12/02 06:34:01;;;;;;;;;;;;;;;-4.02;100.00;101173.44;5056454;28;20395;-73
2023/12/02 06:36:26;;;;;;;;;;;;;;;-3.98;100.00;101167.66;5076314;28;20365;-73
2023/12/02 06:38:51;;;;;;;;;;;;;;;-3.93;100.00;101176.47;5072707;28;19966;-73
2023/12/02 06:41:17;;;;;;;;;;;;;;;-3.91;100.00;101169.72;5056628;28;20097;-73
2023/12/02 06:43:42;;;;;;;;;;;;;;;-3.86;100.00;101170.88;5055897;28;19924;-73
2023/12/02 06:46:08;;;;;;;;;;;;;;;-3.86;100.00;101160.63;5057770;28;19916;-73
2023/12/02 06:48:34;;;;;;;;;;;;;;;-3.82;100.00;101171.91;5075491;28;19923;-73
2023/12/02 06:51:00;;;;;;;;;;;;;;;-3.80;100.00;101177.13;5055305;28;19920;-73
2023/12/02 06:53:25;;;;;;;;;;;;;;;-3.77;100.00;101177.28;5077098;28;20293;-73
2023/12/02 06:55:50;;;;;;;;;;;;;;;-3.74;100.00;101178.28;5075635;28;19916;-73
2023/12/02 06:58:16;;;;;;;;;;;;;;;-3.73;100.00;101187.75;5090360;28;19916;-73
2023/12/02 07:00:41;;;;;;;;;;;;;;;-3.69;100.00;101199.06;5059584;28;20365;-73
2023/12/02 07:03:08;;;;;;;;;;;;;;;-3.66;100.00;101196.66;5087860;28;19924;-72
2023/12/02 07:05:34;;;;;;;;;;;;;;;-3.62;100.00;101202.78;5059289;28;20328;-72
2023/12/02 07:07:59;;;;;;;;;;;;;;;-3.61;100.00;101205.44;5069088;28;19920;-72
2023/12/02 07:10:24;;;;;;;;;;;;;;;-3.59;100.00;101206.41;5058740;28;20347;-72
2023/12/02 07:12:51;;;;;;;;;;;;;;;-3.57;100.00;101215.03;5064747;28;19960;-72
2023/12/02 07:15:16;;;;;;;;;;;;;;;-3.57;100.00;101219.28;5065245;28;19924;-73
2023/12/02 07:17:41;;;;;;;;;;;;;;;-3.54;100.00;101222.00;5070652;28;19935;-73
2023/12/02 07:20:07;;;;;;;;;;;;;;;-3.55;100.00;101228.81;5076196;28;19928;-72
2023/12/02 07:22:36;;;;;;;;;;;;;;;-3.53;100.00;101226.34;5075293;28;20377;-72
2023/12/02 07:25:01;;;;;;;;;;;;;;;-3.52;100.00;101228.97;5075753;28;19947;-72
2023/12/02 07:27:26;;;;;;;;;;;;;;;-3.51;100.00;101232.41;5059051;28;19928;-72
2023/12/02 07:29:52;;;;;;;;;;;;;;;-3.49;100.00;101247.06;5075812;28;19916;-73
2023/12/02 07:32:17;;;;;;;;;;;;;;;-3.46;100.00;101235.19;5063897;28;19924;-73
2023/12/02 07:34:42;;;;;;;;;;;;;;;-3.45;100.00;101232.72;5088171;28;19916;-73
2023/12/02 07:37:08;;;;;;;;;;;;;;;-3.45;100.00;101231.84;5071802;28;19927;-73
2023/12/02 07:39:33;;;;;;;;;;;;;;;-3.43;100.00;101237.91;5071402;28;19920;-73
2023/12/02 07:41:59;;;;;;;;;;;;;;;-3.41;100.00;101238.88;5081666;28;20607;-73
2023/12/02 07:44:25;;;;;;;;;;;;;;;-3.34;100.00;101252.09;5064376;28;19920;-74
2023/12/02 07:46:50;;;;;;;;;;;;;;;-3.26;99.72;101247.38;5057912;28;20060;-74
2023/12/02 07:49:15;;;;;;;;;;;;;;;-3.22;100.00;101245.81;5046758;28;19920;-74
2023/12/02 07:51:40;;;;;;;;;;;;;;;-3.17;99.91;101249.50;5089161;28;19919;-74
2023/12/02 07:54:08;;;;;;;;;;;;;;;-3.10;99.95;101261.84;5061073;28;19924;-74
2023/12/02 07:56:33;;;;;;;;;;;;;;;-3.01;99.81;101248.59;5091242;28;19916;-74
2023/12/02 07:58:59;;;;;;;;;;;;;;;-2.95;99.87;101251.47;5060254;28;19974;-74
2023/12/02 08:01:25;;;;;;;;;;;;;;;-2.91;100.00;101258.50;5059519;28;20007;-74
2023/12/02 08:03:50;;;;;;;;;;;;;;;-2.90;99.81;101254.25;5059641;28;19920;-74
2023/12/02 08:06:16;;;;;;;;;;;;;;;-2.94;99.15;101257.44;5058179;28;19924;-73
2023/12/02 08:08:41;;;;;;;;;;;;;;;-3.03;99.17;101270.69;5075723;28;19923;-73
2023/12/02 08:11:07;;;;;;;;;;;;;;;-3.07;99.31;101276.50;5057771;28;19923;-73
2023/12/02 08:13:32;;;;;;;;;;;;;;;-3.09;98.93;101271.25;5076115;28;19916;-74
2023/12/02 08:15:58;;;;;;;;;;;;;;;-3.03;99.33;101273.25;5058334;28;19959;-74
2023/12/02 08:18:23;;;;;;;;;;;;;;;-3.02;99.49;101277.59;5075377;28;19916;-74
2023/12/02 08:20:48;;;;;;;;;;;;;;;-2.99;98.99;101282.88;5080798;28;19920;-74
2023/12/02 08:23:14;;;;;;;;;;;;;;;-2.96;99.58;101285.59;5075735;28;19955;-74
2023/12/02 08:25:39;;;;;;;;;;;;;;;-2.85;99.14;101286.13;5074376;28;19912;-74
2023/12/02 08:28:05;;;;;;;;;;;;;;;-2.75;99.72;101279.78;5075679;28;20023;-74
2023/12/02 08:30:30;;;;;;;;;;;;;;;-2.55;99.08;101283.31;5059254;28;20015;-74
2023/12/02 08:32:55;;;;;;;;;;;;;;;-2.15;98.92;101291.25;5072576;28;19931;-74
2023/12/02 08:35:21;;;;;;;;;;;;;;;-2.00;98.75;101290.19;5065857;28;19924;-74
2023/12/02 08:37:47;;;;;;;;;;;;;;;-1.89;98.86;101296.72;5074076;28;20370;-74
2023/12/02 08:40:12;;;;;;;;;;;;;;;-1.76;98.79;101300.72;5057164;28;19935;-74
2023/12/02 08:42:37;;;;;;;;;;;;;;;-1.66;98.21;101302.91;5072504;28;19963;-74
2023/12/02 08:45:06;;;;;;;;;;;;;;;-1.63;98.03;101305.59;5049127;28;19924;-74
2023/12/02 08:47:34;;;;;;;;;;;;;;;-1.60;97.50;101298.03;5071490;28;20403;-74
2023/12/02 08:50:01;;;;;;;;;;;;;;;-1.58;97.57;101306.72;5057595;28;19924;-74
2023/12/02 08:52:26;;;;;;;;;;;;;;;-1.56;97.40;101309.34;5057846;28;20290;-74
2023/12/02 08:54:52;;;;;;;;;;;;;;;-1.57;97.74;101310.16;5058088;28;19920;-74
2023/12/02 08:57:17;;;;;;;;;;;;;;;-1.59;97.36;101316.91;5073955;28;19916;-74
2023/12/02 08:59:42;;;;;;;;;;;;;;;-1.60;97.40;101312.59;5057803;28;19927;-74
2023/12/02 09:02:08;;;;;;;;;;;;;;;-1.60;97.19;101315.16;5057274;28;19927;-74
2023/12/02 09:04:34;;;;;;;;;;;;;;;-1.58;97.56;101313.50;5057440;28;19919;-74
2023/12/02 09:06:59;;;;;;;;;;;;;;;-1.55;96.68;101320.50;5057513;28;19943;-74
2023/12/02 09:09:24;;;;;;;;;;;;;;;-1.51;97.40;101317.25;5057968;28;20299;-74
2023/12/02 09:11:50;;;;;;;;;;;;;;;-1.47;nan;101319.16;5057268;28;20628;-74
2023/12/02 09:14:15;;;;;;;;;;;;;;;-1.50;96.82;101330.16;5074099;28;19935;-73
2023/12/02 09:16:46;;;;;;;;;;;;;;;-1.59;96.38;101327.19;5073593;28;19924;-74
2023/12/02 09:19:31;;;;;;;;;;;;;;;-1.68;96.50;101321.63;5054678;28;19924;-74
2023/12/02 09:21:56;;;;;;;;;;;;;;;-1.69;96.26;101323.31;5073685;28;20362;-74
2023/12/02 09:24:31;;;;;;;;;;;;;;;-1.35;96.54;101334.25;5063585;28;19916;-74
2023/12/02 09:26:56;;;;;;;;;;;;;;;-0.07;95.40;101327.59;5072271;28;20006;-75
2023/12/02 09:29:27;;;;;;;;;;;;;;;2.25;92.54;101327.84;5057459;28;20106;-75
2023/12/02 09:31:53;;;;;;;;;;;;;;;4.72;90.24;101331.41;5074025;28;19916;-75
2023/12/02 09:34:48;;;;;;;;;;;;;;;6.58;85.54;101325.81;5074457;28;19919;-76
2023/12/02 09:37:32;;;;;;;;;;;;;;;8.58;83.17;101325.75;5056248;28;19952;-76
2023/12/02 09:40:29;;;;;;;;;;;;;;;9.86;69.45;101330.31;5073576;28;20358;-75
2023/12/02 09:42:57;;;;;;;;;;;;;;;11.47;73.34;101327.91;5041347;28;20270;-77
2023/12/02 09:45:29;;;;;;;;;;;;;;;12.35;70.76;101328.88;5067077;28;19912;-76
2023/12/02 09:48:02;;;;;;;;;;;;;;;13.00;65.70;101335.06;5073898;28;19916;-75
2023/12/02 09:50:33;;;;;;;;;;;;;;;13.62;64.58;101338.53;5073400;28;19920;-76
2023/12/02 09:53:20;;;;;;;;;;;;;;;13.89;59.82;101338.97;5073915;28;19916;-75
2023/12/02 09:55:53;;;;;;;;;;;;;;;14.48;63.96;101337.00;5072960;28;20381;-75
2023/12/02 09:58:22;;;;;;;;;;;;;;;15.35;63.47;101343.91;5074068;28;20369;-77
2023/12/02 10:00:59;;;;;;;;;;;;;;;16.05;62.64;101342.25;5073045;28;19924;-75
2023/12/02 10:03:28;;;;;;;;;;;;;;;16.60;57.51;101348.63;5073835;28;19916;-76
2023/12/02 10:06:12;;;;;;;;;;;;;;;17.30;59.85;101350.09;5073118;28;20000;-76
2023/12/02 10:08:48;;;;;;;;;;;;;;;17.87;59.93;101354.44;5069937;28;20408;-75
2023/12/02 10:11:24;;;;;;;;;;;;;;;17.35;55.37;101354.38;5082880;28;19938;-76
2023/12/02 10:13:56;;;;;;;;;;;;;;;16.79;59.84;101356.03;5073242;28;20378;-76
2023/12/02 10:16:23;;;;;;;;;;;;;;;17.22;52.72;101365.34;5073651;28;20313;-75
2023/12/02 10:18:53;;;;;;;;;;;;;;;17.99;55.49;101354.06;5073602;28;19916;-75
2023/12/02 10:21:20;;;;;;;;;;;;;;;18.67;57.72;101360.41;5056839;28;19916;-76
2023/12/02 10:23:48;;;;;;;;;;;;;;;17.94;58.73;101353.34;5073819;28;19916;-76
2023/12/02 10:26:15;;;;;;;;;;;;;;;16.95;57.88;101353.81;5073440;28;19927;-75
2023/12/02 10:28:41;;;;;;;;;;;;;;;15.89;63.74;101347.91;5078194;28;20361;-75
2023/12/02 10:31:08;;;;;;;;;;;;;;;14.74;63.23;101356.72;5078341;28;19916;-75
2023/12/02 10:33:33;;;;;;;;;;;;;;;13.59;66.48;101350.03;5077583;28;20276;-74
2023/12/02 10:36:05;;;;;;;;;;;;;;;12.52;64.07;101368.13;5095640;28;20015;-74
2023/12/02 10:38:49;;;;;;;;;;;;;;;11.32;71.66;101360.41;5076899;28;19961;-75
2023/12/02 10:41:18;;;;;;;;;;;;;;;9.77;64.58;101361.72;5076363;28;19923;-74
2023/12/02 10:43:53;;;;;;;;;;;;;;;8.69;66.60;101356.28;5077571;28;20022;-74
2023/12/02 10:46:19;;;;;;;;;;;;;;;7.82;69.98;101357.47;5073737;28;19917;-74
2023/12/02 10:48:44;;;;;;;;;;;;;;;7.02;73.21;101354.97;5047144;28;19916;-74
2023/12/02 10:51:10;;;;;;;;;;;;;;;6.26;66.14;101353.13;5077255;28;20341;-74
2023/12/02 10:53:37;;;;;;;;;;;;;;;5.81;70.77;101360.25;5060662;28;19920;-74
2023/12/02 10:56:07;;;;;;;;;;;;;;;5.41;70.96;101355.22;5094898;28;19958;-74
2023/12/02 10:58:32;;;;;;;;;;;;;;;4.93;74.11;101363.84;5077020;28;20202;-73
2023/12/02 11:01:01;;;;;;;;;;;;;;;4.50;80.76;101350.88;5076933;28;19916;-73
2023/12/02 11:03:45;;;;;;;;;;;;;;;4.13;73.55;101357.84;5077363;28;20528;-73
2023/12/02 11:06:17;;;;;;;;;;;;;;;3.90;74.55;101346.94;5075530;28;19969;-73
2023/12/02 11:08:47;;;;;;;;;;;;;;;4.12;74.59;101349.19;5076908;28;19978;-73
2023/12/02 11:11:18;;;;;;;;;;;;;;;5.34;74.62;101348.16;5072437;28;19916;-74
2023/12/02 11:13:47;;;;;;;;;;;;;;;7.34;72.50;101346.59;5074661;28;20438;-73
2023/12/02 11:16:31;;;;;;;;;;;;;;;8.57;70.41;101352.72;5076967;28;19977;-73
2023/12/02 11:19:00;;;;;;;;;;;;;;;9.71;68.10;101339.94;5095066;28;19973;-73
2023/12/02 11:21:43;;;;;;;;;;;;;;;10.80;64.90;101345.78;5076205;28;19933;-73
2023/12/02 11:24:11;;;;;;;;;;;;;;;11.57;63.23;101341.84;5076808;28;19912;-73
2023/12/02 11:26:36;;;;;;;;;;;;;;;11.97;59.96;101354.66;5075941;28;20007;-75
2023/12/02 11:29:10;;;;;;;;;;;;;;;12.17;59.07;101353.56;5076347;28;20364;-75
2023/12/02 11:31:55;;;;;;;;;;;;;;;12.26;62.93;101345.63;5076516;28;19927;-75
2023/12/02 11:34:32;;;;;;;;;;;;;;;12.57;58.02;101351.41;5075912;28;20262;-75
2023/12/02 11:37:07;;;;;;;;;;;;;;;13.42;59.20;101352.91;5075315;28;20446;-75
2023/12/02 11:39:53;;;;;;;;;;;;;;;13.58;53.93;101348.28;5075962;28;19923;-75
2023/12/02 11:42:19;;;;;;;;;;;;;;;13.65;58.33;101347.28;5074589;28;19916;-75
2023/12/02 11:45:04;;;;;;;;;;;;;;;14.13;52.15;101348.22;5076090;28;19920;-74
2023/12/02 11:47:48;;;;;;;;;;;;;;;14.76;55.61;101354.91;5076482;28;19965;-75
2023/12/02 11:50:26;;;;;;;;;;;;;;;15.15;54.35;101341.75;5075459;28;19965;-75
2023/12/02 11:53:09;;;;;;;;;;;;;;;15.68;55.91;101349.28;5076640;28;19986;-76
2023/12/02 11:55:35;;;;;;;;;;;;;;;15.91;48.05;101353.16;5107838;28;19923;-76
2023/12/02 11:58:00;;;;;;;;;;;;;;;16.40;49.81;101356.25;5088335;28;19920;-76
2023/12/02 12:00:25;;;;;;;;;;;;;;;16.14;47.42;101356.97;5078299;28;20381;-75
2023/12/02 12:02:51;;;;;;;;;;;;;;;15.92;52.54;101354.91;5096435;28;20301;-76
2023/12/02 12:05:35;;;;;;;;;;;;;;;16.37;48.68;101359.00;5097115;28;20002;-75
2023/12/02 12:08:00;;;;;;;;;;;;;;;16.33;55.23;101358.19;5088125;28;19920;-76
2023/12/02 12:10:32;;;;;;;;;;;;;;;15.79;53.52;101357.00;5075271;28;19920;-75
2023/12/02 12:12:59;;;;;;;;;;;;;;;15.04;45.29;101363.13;5076656;28;19972;-75
2023/12/02 12:15:24;;;;;;;;;;;;;;;14.30;52.44;101359.31;5092050;28;19978;-75
2023/12/02 12:17:49;;;;;;;;;;;;;;;12.99;53.87;101364.03;5065999;28;19959;-75
2023/12/02 12:20:19;;;;;;;;;;;;;;;11.79;56.96;101361.78;5058474;28;19977;-75
2023/12/02 12:22:45;;;;;;;;;;;;;;;11.04;59.92;101364.94;5060485;28;19924;-75
2023/12/02 12:25:11;;;;;;;;;;;;;;;10.58;59.65;101361.63;5078675;28;20292;-75
2023/12/02 12:27:36;;;;;;;;;;;;;;;9.95;58.33;101355.63;5078203;28;19927;-75
2023/12/02 12:30:02;;;;;;;;;;;;;;;9.28;56.08;101354.69;5077248;28;19919;-75
2023/12/02 12:32:27;;;;;;;;;;;;;;;9.05;60.75;101363.38;5075403;28;19923;-74
2023/12/02 12:34:56;;;;;;;;;;;;;;;9.08;62.94;101359.88;5058994;28;19927;-75
2023/12/02 12:37:21;;;;;;;;;;;;;;;8.87;62.52;101366.81;5088762;28;19920;-75
2023/12/02 12:39:47;;;;;;;;;;;;;;;8.61;64.85;101351.88;5058785;28;20037;-75
2023/12/02 12:42:16;;;;;;;;;;;;;;;8.57;59.37;101364.94;5057574;28;19912;-75
2023/12/02 12:44:41;;;;;;;;;;;;;;;9.30;63.21;101368.69;5078811;28;19964;-74
2023/12/02 12:47:08;;;;;;;;;;;;;;;10.17;59.80;101364.31;5075574;28;20006;-74
2023/12/02 12:49:37;;;;;;;;;;;;;;;10.95;63.00;101373.72;5074675;28;19938;-75
2023/12/02 12:52:03;;;;;;;;;;;;;;;11.54;57.67;101365.50;5074808;28;19916;-75
2023/12/02 12:54:32;;;;;;;;;;;;;;;11.11;59.38;101384.13;5059524;28;19928;-74
2023/12/02 12:57:01;;;;;;;;;;;;;;;9.88;58.14;101381.81;5075026;28;20266;-75
2023/12/02 12:59:28;;;;;;;;;;;;;;;8.73;65.44;101392.00;5075919;28;20478;-75
2023/12/02 13:02:09;;;;;;;;;;;;;;;7.85;66.10;101392.28;5075552;28;20341;-74
2023/12/02 13:04:35;;;;;;;;;;;;;;;7.14;67.98;101396.81;5078974;28;19916;-74
2023/12/02 13:07:09;;;;;;;;;;;;;;;6.55;66.65;101398.69;5078897;28;20280;-74
2023/12/02 13:09:39;;;;;;;;;;;;;;;6.01;66.66;101394.41;5095988;28;20355;-74
2023/12/02 13:12:25;;;;;;;;;;;;;;;5.51;73.57;101390.94;5092300;28;19916;-74
2023/12/02 13:14:51;;;;;;;;;;;;;;;4.99;67.93;101390.81;5081871;28;19920;-74
2023/12/02 13:17:17;;;;;;;;;;;;;;;4.87;69.80;101398.38;5072204;28;19920;-74
2023/12/02 13:19:44;;;;;;;;;;;;;;;4.77;70.12;101404.22;5074821;28;19920;-73
2023/12/02 13:22:10;;;;;;;;;;;;;;;4.63;71.37;101398.75;5069306;28;19916;-74
2023/12/02 13:24:39;;;;;;;;;;;;;;;4.48;73.36;101394.97;5058438;28;19999;-74
2023/12/02 13:27:13;;;;;;;;;;;;;;;4.22;70.20;101396.09;5071192;28;19962;-74
2023/12/02 13:29:38;;;;;;;;;;;;;;;3.96;71.25;101404.13;5070219;28;19917;-73
2023/12/02 13:32:04;;;;;;;;;;;;;;;3.72;73.52;101397.50;5051450;28;20382;-73
2023/12/02 13:34:39;;;;;;;;;;;;;;;3.46;72.00;101414.94;5051111;28;19920;-74
2023/12/02 13:37:06;;;;;;;;;;;;;;;3.26;72.93;101404.03;5056831;28;20010;-74
2023/12/02 13:39:33;;;;;;;;;;;;;;;3.13;72.90;101413.19;5071344;28;19924;-73
2023/12/02 13:42:01;;;;;;;;;;;;;;;2.94;74.14;101417.88;5056306;28;20279;-74
2023/12/02 13:44:29;;;;;;;;;;;;;;;2.77;73.87;101408.72;5051193;28;19920;-75
2023/12/02 13:46:57;;;;;;;;;;;;;;;2.67;75.38;101417.94;5031040;28;19939;-75
2023/12/02 13:49:35;;;;;;;;;;;;;;;2.61;75.14;101409.97;5033868;28;19923;-74
2023/12/02 13:52:09;;;;;;;;;;;;;;;2.51;75.36;101410.53;5049899;28;19912;-74